sensor_id;sensor_type;location;lat;lon;timestamp;pressure;altitude;pressure_sealevel;temperature
15079;BMP180;6932;51.438;5.470;2024-03-02T00:00:10;99364.00;;;15.70
15079;BMP180;6932;51.438;5.470;2024-03-02T00:02:42;99384.00;;;15.70
15079;BMP180;6932;51.438;5.470;2024-03-02T00:05:12;99387.00;;;15.70
15079;BMP180;6932;51.438;5.470;2024-03-02T00:07:42;99395.00;;;15.70
15079;BMP180;6932;51.438;5.470;2024-03-02T00:10:10;99447.00;;;15.80
15079;BMP180;6932;51.438;5.470;2024-03-02T00:12:38;99479.00;;;15.80
15079;BMP180;6932;51.438;5.470;2024-03-02T00:15:48;99484.00;;;15.60
15079;BMP180;6932;51.438;5.470;2024-03-02T00:18:27;99507.00;;;15.60
15079;BMP180;6932;51.438;5.470;2024-03-02T00:20:57;99505.00;;;15.50
15079;BMP180;6932;51.438;5.470;2024-03-02T00:23:24;99507.00;;;15.40
15079;BMP180;6932;51.438;5.470;2024-03-02T00:25:54;99505.00;;;15.30
15079;BMP180;6932;51.438;5.470;2024-03-02T00:28:25;99501.00;;;15.20
15079;BMP180;6932;51.438;5.470;2024-03-02T00:31:12;99493.00;;;15.00
15079;BMP180;6932;51.438;5.470;2024-03-02T00:33:47;99499.00;;;14.90
15079;BMP180;6932;51.438;5.470;2024-03-02T00:36:15;99497.00;;;14.90
15079;BMP180;6932;51.438;5.470;2024-03-02T00:38:49;99499.00;;;14.80
15079;BMP180;6932;51.438;5.470;2024-03-02T00:41:26;99523.00;;;14.70
15079;BMP180;6932;51.438;5.470;2024-03-02T00:44:01;99511.00;;;14.70
15079;BMP180;6932;51.438;5.470;2024-03-02T00:46:36;99512.00;;;14.60
15079;BMP180;6932;51.438;5.470;2024-03-02T00:49:05;99510.00;;;14.60
15079;BMP180;6932;51.438;5.470;2024-03-02T00:51:33;99514.00;;;14.50
15079;BMP180;6932;51.438;5.470;2024-03-02T00:54:04;99513.00;;;14.50
15079;BMP180;6932;51.438;5.470;2024-03-02T00:56:32;99510.00;;;14.50
15079;BMP180;6932;51.438;5.470;2024-03-02T00:58:58;99507.00;;;14.50
15079;BMP180;6932;51.438;5.470;2024-03-02T01:01:24;99507.00;;;14.40
15079;BMP180;6932;51.438;5.470;2024-03-02T01:03:50;99513.00;;;14.40
15079;BMP180;6932;51.438;5.470;2024-03-02T01:06:16;99513.00;;;14.40
15079;BMP180;6932;51.438;5.470;2024-03-02T01:08:43;99497.00;;;14.40
15079;BMP180;6932;51.438;5.470;2024-03-02T01:11:09;99501.00;;;14.30
15079;BMP180;6932;51.438;5.470;2024-03-02T01:13:35;99511.00;;;14.30
15079;BMP180;6932;51.438;5.470;2024-03-02T01:16:01;99511.00;;;14.30
15079;BMP180;6932;51.438;5.470;2024-03-02T01:18:28;99511.00;;;14.30
15079;BMP180;6932;51.438;5.470;2024-03-02T01:20:54;99513.00;;;14.30
15079;BMP180;6932;51.438;5.470;2024-03-02T01:23:23;99507.00;;;14.30
15079;BMP180;6932;51.438;5.470;2024-03-02T01:25:50;99510.00;;;14.30
15079;BMP180;6932;51.438;5.470;2024-03-02T01:28:16;99507.00;;;14.30
15079;BMP180;6932;51.438;5.470;2024-03-02T01:30:43;99512.00;;;14.30
15079;BMP180;6932;51.438;5.470;2024-03-02T01:33:08;99513.00;;;14.30
15079;BMP180;6932;51.438;5.470;2024-03-02T01:35:35;99513.00;;;14.30
15079;BMP180;6932;51.438;5.470;2024-03-02T01:38:01;99516.00;;;14.30
15079;BMP180;6932;51.438;5.470;2024-03-02T01:40:27;99522.00;;;14.30
15079;BMP180;6932;51.438;5.470;2024-03-02T01:42:54;99514.00;;;14.30
15079;BMP180;6932;51.438;5.470;2024-03-02T01:45:20;99510.00;;;14.30
15079;BMP180;6932;51.438;5.470;2024-03-02T01:47:46;99506.00;;;14.40
15079;BMP180;6932;51.438;5.470;2024-03-02T01:50:12;99512.00;;;14.40
15079;BMP180;6932;51.438;5.470;2024-03-02T01:52:39;99510.00;;;14.40
15079;BMP180;6932;51.438;5.470;2024-03-02T01:55:05;99511.00;;;14.40
15079;BMP180;6932;51.438;5.470;2024-03-02T01:57:32;99514.00;;;14.40
15079;BMP180;6932;51.438;5.470;2024-03-02T01:59:58;99529.00;;;14.40
15079;BMP180;6932;51.438;5.470;2024-03-02T02:02:24;99522.00;;;14.40
15079;BMP180;6932;51.438;5.470;2024-03-02T02:04:50;99524.00;;;14.40
15079;BMP180;6932;51.438;5.470;2024-03-02T02:07:16;99523.00;;;14.40
15079;BMP180;6932;51.438;5.470;2024-03-02T02:09:42;99519.00;;;14.40
15079;BMP180;6932;51.438;5.470;2024-03-02T02:12:09;99521.00;;;14.30
15079;BMP180;6932;51.438;5.470;2024-03-02T02:14:36;99517.00;;;14.30
15079;BMP180;6932;51.438;5.470;2024-03-02T02:17:02;99513.00;;;14.30
15079;BMP180;6932;51.438;5.470;2024-03-02T02:19:28;99520.00;;;14.30
15079;BMP180;6932;51.438;5.470;2024-03-02T02:21:55;99498.00;;;14.30
15079;BMP180;6932;51.438;5.470;2024-03-02T02:24:21;99518.00;;;14.30
15079;BMP180;6932;51.438;5.470;2024-03-02T02:26:46;99510.00;;;14.30
15079;BMP180;6932;51.438;5.470;2024-03-02T02:29:12;99509.00;;;14.30
15079;BMP180;6932;51.438;5.470;2024-03-02T02:31:41;99509.00;;;14.20
15079;BMP180;6932;51.438;5.470;2024-03-02T02:34:07;99505.00;;;14.30
15079;BMP180;6932;51.438;5.470;2024-03-02T02:36:37;99505.00;;;14.20
15079;BMP180;6932;51.438;5.470;2024-03-02T02:39:05;99492.00;;;14.20
15079;BMP180;6932;51.438;5.470;2024-03-02T02:41:32;99489.00;;;14.20
15079;BMP180;6932;51.438;5.470;2024-03-02T02:43:58;99488.00;;;14.20
15079;BMP180;6932;51.438;5.470;2024-03-02T02:46:24;99497.00;;;14.20
15079;BMP180;6932;51.438;5.470;2024-03-02T02:48:49;99515.00;;;14.20
15079;BMP180;6932;51.438;5.470;2024-03-02T02:51:17;99514.00;;;14.20
15079;BMP180;6932;51.438;5.470;2024-03-02T02:53:43;99503.00;;;14.20
15079;BMP180;6932;51.438;5.470;2024-03-02T02:56:09;99500.00;;;14.20
15079;BMP180;6932;51.438;5.470;2024-03-02T02:58:35;99503.00;;;14.10
15079;BMP180;6932;51.438;5.470;2024-03-02T03:01:01;99512.00;;;14.10
15079;BMP180;6932;51.438;5.470;2024-03-02T03:03:27;99515.00;;;14.10
15079;BMP180;6932;51.438;5.470;2024-03-02T03:05:52;99512.00;;;14.10
15079;BMP180;6932;51.438;5.470;2024-03-02T03:08:18;99516.00;;;14.10
15079;BMP180;6932;51.438;5.470;2024-03-02T03:10:44;99510.00;;;14.10
15079;BMP180;6932;51.438;5.470;2024-03-02T03:13:10;99508.00;;;14.10
15079;BMP180;6932;51.438;5.470;2024-03-02T03:15:36;99504.00;;;14.10
15079;BMP180;6932;51.438;5.470;2024-03-02T03:18:04;99518.00;;;14.10
15079;BMP180;6932;51.438;5.470;2024-03-02T03:20:30;99523.00;;;14.10
15079;BMP180;6932;51.438;5.470;2024-03-02T03:22:57;99511.00;;;14.10
15079;BMP180;6932;51.438;5.470;2024-03-02T03:25:23;99520.00;;;14.10
15079;BMP180;6932;51.438;5.470;2024-03-02T03:27:49;99527.00;;;14.00
15079;BMP180;6932;51.438;5.470;2024-03-02T03:30:15;99522.00;;;14.00
15079;BMP180;6932;51.438;5.470;2024-03-02T03:32:40;99514.00;;;14.00
15079;BMP180;6932;51.438;5.470;2024-03-02T03:35:07;99525.00;;;14.00
15079;BMP180;6932;51.438;5.470;2024-03-02T03:37:33;99545.00;;;14.00
15079;BMP180;6932;51.438;5.470;2024-03-02T03:40:03;99549.00;;;14.00
15079;BMP180;6932;51.438;5.470;2024-03-02T03:42:32;99533.00;;;14.00
15079;BMP180;6932;51.438;5.470;2024-03-02T03:44:58;99523.00;;;14.00
15079;BMP180;6932;51.438;5.470;2024-03-02T03:47:23;99517.00;;;14.00
15079;BMP180;6932;51.438;5.470;2024-03-02T03:49:49;99546.00;;;14.00
15079;BMP180;6932;51.438;5.470;2024-03-02T03:52:15;99522.00;;;14.00
15079;BMP180;6932;51.438;5.470;2024-03-02T03:54:40;99537.00;;;14.00
15079;BMP180;6932;51.438;5.470;2024-03-02T03:57:08;99540.00;;;14.00
15079;BMP180;6932;51.438;5.470;2024-03-02T03:59:34;99536.00;;;14.00
15079;BMP180;6932;51.438;5.470;2024-03-02T04:01:59;99527.00;;;14.00
15079;BMP180;6932;51.438;5.470;2024-03-02T04:04:25;99540.00;;;14.00
15079;BMP180;6932;51.438;5.470;2024-03-02T04:06:51;99540.00;;;14.00
15079;BMP180;6932;51.438;5.470;2024-03-02T04:09:17;99539.00;;;14.00
15079;BMP180;6932;51.438;5.470;2024-03-02T04:11:43;99543.00;;;14.00
15079;BMP180;6932;51.438;5.470;2024-03-02T04:14:08;99539.00;;;14.00
15079;BMP180;6932;51.438;5.470;2024-03-02T04:16:34;99524.00;;;14.00
15079;BMP180;6932;51.438;5.470;2024-03-02T04:19:00;99528.00;;;14.00
15079;BMP180;6932;51.438;5.470;2024-03-02T04:21:26;99541.00;;;14.00
15079;BMP180;6932;51.438;5.470;2024-03-02T04:23:51;99535.00;;;14.00
15079;BMP180;6932;51.438;5.470;2024-03-02T04:26:17;99535.00;;;14.00
15079;BMP180;6932;51.438;5.470;2024-03-02T04:28:47;99541.00;;;14.00
15079;BMP180;6932;51.438;5.470;2024-03-02T04:31:15;99533.00;;;14.00
15079;BMP180;6932;51.438;5.470;2024-03-02T04:33:40;99522.00;;;14.00
15079;BMP180;6932;51.438;5.470;2024-03-02T04:36:06;99545.00;;;14.00
15079;BMP180;6932;51.438;5.470;2024-03-02T04:38:35;99535.00;;;13.90
15079;BMP180;6932;51.438;5.470;2024-03-02T04:41:01;99544.00;;;13.90
15079;BMP180;6932;51.438;5.470;2024-03-02T04:43:26;99542.00;;;13.90
15079;BMP180;6932;51.438;5.470;2024-03-02T04:45:52;99546.00;;;13.90
15079;BMP180;6932;51.438;5.470;2024-03-02T04:48:18;99536.00;;;14.00
15079;BMP180;6932;51.438;5.470;2024-03-02T04:50:44;99549.00;;;14.00
15079;BMP180;6932;51.438;5.470;2024-03-02T04:53:10;99554.00;;;14.00
15079;BMP180;6932;51.438;5.470;2024-03-02T04:55:36;99549.00;;;14.00
15079;BMP180;6932;51.438;5.470;2024-03-02T04:58:04;99551.00;;;13.90
15079;BMP180;6932;51.438;5.470;2024-03-02T05:00:31;99554.00;;;14.00
15079;BMP180;6932;51.438;5.470;2024-03-02T05:02:56;99548.00;;;13.90
15079;BMP180;6932;51.438;5.470;2024-03-02T05:05:22;99547.00;;;13.90
15079;BMP180;6932;51.438;5.470;2024-03-02T05:07:48;99551.00;;;13.90
15079;BMP180;6932;51.438;5.470;2024-03-02T05:10:14;99554.00;;;13.90
15079;BMP180;6932;51.438;5.470;2024-03-02T05:12:40;99562.00;;;13.90
15079;BMP180;6932;51.438;5.470;2024-03-02T05:15:13;99575.00;;;13.90
15079;BMP180;6932;51.438;5.470;2024-03-02T05:17:41;99568.00;;;13.90
15079;BMP180;6932;51.438;5.470;2024-03-02T05:20:09;99570.00;;;13.90
15079;BMP180;6932;51.438;5.470;2024-03-02T05:22:35;99572.00;;;13.90
15079;BMP180;6932;51.438;5.470;2024-03-02T05:25:03;99579.00;;;13.80
15079;BMP180;6932;51.438;5.470;2024-03-02T05:27:28;99582.00;;;13.80
15079;BMP180;6932;51.438;5.470;2024-03-02T05:29:54;99576.00;;;13.80
15079;BMP180;6932;51.438;5.470;2024-03-02T05:32:20;99579.00;;;13.80
15079;BMP180;6932;51.438;5.470;2024-03-02T05:34:46;99575.00;;;13.80
15079;BMP180;6932;51.438;5.470;2024-03-02T05:37:12;99589.00;;;13.80
15079;BMP180;6932;51.438;5.470;2024-03-02T05:39:37;99590.00;;;13.80
15079;BMP180;6932;51.438;5.470;2024-03-02T05:42:03;99585.00;;;13.80
15079;BMP180;6932;51.438;5.470;2024-03-02T05:44:29;99590.00;;;13.80
15079;BMP180;6932;51.438;5.470;2024-03-02T05:46:56;99585.00;;;13.80
15079;BMP180;6932;51.438;5.470;2024-03-02T05:49:22;99590.00;;;13.80
15079;BMP180;6932;51.438;5.470;2024-03-02T05:51:47;99584.00;;;13.80
15079;BMP180;6932;51.438;5.470;2024-03-02T05:54:13;99591.00;;;13.80
15079;BMP180;6932;51.438;5.470;2024-03-02T05:56:39;99590.00;;;13.80
15079;BMP180;6932;51.438;5.470;2024-03-02T05:59:05;99582.00;;;13.80
15079;BMP180;6932;51.438;5.470;2024-03-02T06:01:40;99577.00;;;13.80
15079;BMP180;6932;51.438;5.470;2024-03-02T06:04:06;99590.00;;;13.80
15079;BMP180;6932;51.438;5.470;2024-03-02T06:06:33;99590.00;;;13.80
15079;BMP180;6932;51.438;5.470;2024-03-02T06:09:04;99586.00;;;13.80
15079;BMP180;6932;51.438;5.470;2024-03-02T06:11:40;99594.00;;;13.80
15079;BMP180;6932;51.438;5.470;2024-03-02T06:14:08;99591.00;;;13.80
15079;BMP180;6932;51.438;5.470;2024-03-02T06:16:34;99596.00;;;13.80
15079;BMP180;6932;51.438;5.470;2024-03-02T06:19:01;99603.00;;;13.80
15079;BMP180;6932;51.438;5.470;2024-03-02T06:21:27;99606.00;;;13.80
15079;BMP180;6932;51.438;5.470;2024-03-02T06:23:54;99609.00;;;13.80
15079;BMP180;6932;51.438;5.470;2024-03-02T06:26:20;99609.00;;;13.80
15079;BMP180;6932;51.438;5.470;2024-03-02T06:28:46;99608.00;;;13.80
15079;BMP180;6932;51.438;5.470;2024-03-02T06:31:12;99605.00;;;13.80
15079;BMP180;6932;51.438;5.470;2024-03-02T06:33:38;99605.00;;;13.80
15079;BMP180;6932;51.438;5.470;2024-03-02T06:36:04;99605.00;;;13.80
15079;BMP180;6932;51.438;5.470;2024-03-02T06:38:30;99609.00;;;13.80
15079;BMP180;6932;51.438;5.470;2024-03-02T06:40:58;99612.00;;;13.80
15079;BMP180;6932;51.438;5.470;2024-03-02T06:43:24;99619.00;;;13.80
15079;BMP180;6932;51.438;5.470;2024-03-02T06:45:51;99629.00;;;13.80
15079;BMP180;6932;51.438;5.470;2024-03-02T06:48:17;99624.00;;;13.80
15079;BMP180;6932;51.438;5.470;2024-03-02T06:50:47;99622.00;;;13.80
15079;BMP180;6932;51.438;5.470;2024-03-02T06:53:13;99636.00;;;13.80
15079;BMP180;6932;51.438;5.470;2024-03-02T06:55:39;99633.00;;;13.90
15079;BMP180;6932;51.438;5.470;2024-03-02T06:58:05;99641.00;;;14.00
15079;BMP180;6932;51.438;5.470;2024-03-02T07:00:31;99640.00;;;14.00
15079;BMP180;6932;51.438;5.470;2024-03-02T07:02:56;99640.00;;;14.10
15079;BMP180;6932;51.438;5.470;2024-03-02T07:05:22;99650.00;;;14.10
15079;BMP180;6932;51.438;5.470;2024-03-02T07:07:48;99647.00;;;14.10
15079;BMP180;6932;51.438;5.470;2024-03-02T07:10:14;99647.00;;;14.20
15079;BMP180;6932;51.438;5.470;2024-03-02T07:12:39;99639.00;;;14.20
15079;BMP180;6932;51.438;5.470;2024-03-02T07:15:06;99648.00;;;14.30
15079;BMP180;6932;51.438;5.470;2024-03-02T07:17:32;99648.00;;;14.40
15079;BMP180;6932;51.438;5.470;2024-03-02T07:19:58;99641.00;;;14.50
15079;BMP180;6932;51.438;5.470;2024-03-02T07:22:24;99653.00;;;14.60
15079;BMP180;6932;51.438;5.470;2024-03-02T07:24:50;99647.00;;;14.70
15079;BMP180;6932;51.438;5.470;2024-03-02T07:27:17;99644.00;;;14.80
15079;BMP180;6932;51.438;5.470;2024-03-02T07:29:43;99652.00;;;14.90
15079;BMP180;6932;51.438;5.470;2024-03-02T07:32:10;99658.00;;;14.90
15079;BMP180;6932;51.438;5.470;2024-03-02T07:34:36;99655.00;;;14.90
15079;BMP180;6932;51.438;5.470;2024-03-02T07:37:03;99656.00;;;15.00
15079;BMP180;6932;51.438;5.470;2024-03-02T07:39:30;99657.00;;;15.00
15079;BMP180;6932;51.438;5.470;2024-03-02T07:41:56;99657.00;;;15.00
15079;BMP180;6932;51.438;5.470;2024-03-02T07:44:22;99654.00;;;15.00
15079;BMP180;6932;51.438;5.470;2024-03-02T07:46:49;99647.00;;;14.90
15079;BMP180;6932;51.438;5.470;2024-03-02T07:49:18;99650.00;;;15.00
15079;BMP180;6932;51.438;5.470;2024-03-02T07:51:44;99654.00;;;14.90
15079;BMP180;6932;51.438;5.470;2024-03-02T07:54:10;99659.00;;;14.90
15079;BMP180;6932;51.438;5.470;2024-03-02T07:56:36;99656.00;;;14.90
15079;BMP180;6932;51.438;5.470;2024-03-02T07:59:03;99660.00;;;14.90
15079;BMP180;6932;51.438;5.470;2024-03-02T08:01:31;99661.00;;;14.90
15079;BMP180;6932;51.438;5.470;2024-03-02T08:04:01;99654.00;;;14.90
15079;BMP180;6932;51.438;5.470;2024-03-02T08:06:28;99662.00;;;14.90
15079;BMP180;6932;51.438;5.470;2024-03-02T08:08:55;99657.00;;;14.90
15079;BMP180;6932;51.438;5.470;2024-03-02T08:11:22;99657.00;;;14.90
15079;BMP180;6932;51.438;5.470;2024-03-02T08:13:48;99656.00;;;15.00
15079;BMP180;6932;51.438;5.470;2024-03-02T08:16:17;99661.00;;;15.10
15079;BMP180;6932;51.438;5.470;2024-03-02T08:18:48;99666.00;;;15.30
15079;BMP180;6932;51.438;5.470;2024-03-02T08:21:14;99671.00;;;15.40
15079;BMP180;6932;51.438;5.470;2024-03-02T08:23:40;99658.00;;;15.50
15079;BMP180;6932;51.438;5.470;2024-03-02T08:26:08;99658.00;;;15.70
15079;BMP180;6932;51.438;5.470;2024-03-02T08:28:35;99649.00;;;15.80
15079;BMP180;6932;51.438;5.470;2024-03-02T08:31:03;99669.00;;;15.90
15079;BMP180;6932;51.438;5.470;2024-03-02T08:33:29;99664.00;;;16.00
15079;BMP180;6932;51.438;5.470;2024-03-02T08:35:56;99669.00;;;16.10
15079;BMP180;6932;51.438;5.470;2024-03-02T08:38:22;99662.00;;;16.20
15079;BMP180;6932;51.438;5.470;2024-03-02T08:40:49;99665.00;;;16.20
15079;BMP180;6932;51.438;5.470;2024-03-02T08:43:15;99677.00;;;16.30
15079;BMP180;6932;51.438;5.470;2024-03-02T08:45:41;99661.00;;;16.40
15079;BMP180;6932;51.438;5.470;2024-03-02T08:48:10;99667.00;;;16.50
15079;BMP180;6932;51.438;5.470;2024-03-02T08:50:36;99669.00;;;16.60
15079;BMP180;6932;51.438;5.470;2024-03-02T08:53:04;99668.00;;;16.70
15079;BMP180;6932;51.438;5.470;2024-03-02T08:55:30;99667.00;;;16.80
15079;BMP180;6932;51.438;5.470;2024-03-02T08:57:56;99677.00;;;16.80
15079;BMP180;6932;51.438;5.470;2024-03-02T09:00:22;99663.00;;;16.90
15079;BMP180;6932;51.438;5.470;2024-03-02T09:02:48;99659.00;;;17.00
15079;BMP180;6932;51.438;5.470;2024-03-02T09:05:15;99672.00;;;17.00
15079;BMP180;6932;51.438;5.470;2024-03-02T09:07:40;99667.00;;;17.10
15079;BMP180;6932;51.438;5.470;2024-03-02T09:10:07;99669.00;;;17.10
15079;BMP180;6932;51.438;5.470;2024-03-02T09:12:34;99669.00;;;17.20
15079;BMP180;6932;51.438;5.470;2024-03-02T09:15:01;99681.00;;;17.20
15079;BMP180;6932;51.438;5.470;2024-03-02T09:17:27;99670.00;;;17.20
15079;BMP180;6932;51.438;5.470;2024-03-02T09:19:53;99677.00;;;17.20
15079;BMP180;6932;51.438;5.470;2024-03-02T09:22:19;99668.00;;;17.30
15079;BMP180;6932;51.438;5.470;2024-03-02T09:24:45;99668.00;;;17.30
15079;BMP180;6932;51.438;5.470;2024-03-02T09:27:11;99665.00;;;17.40
15079;BMP180;6932;51.438;5.470;2024-03-02T09:29:37;99661.00;;;17.40
15079;BMP180;6932;51.438;5.470;2024-03-02T09:32:05;99668.00;;;17.50
15079;BMP180;6932;51.438;5.470;2024-03-02T09:34:31;99666.00;;;17.50
15079;BMP180;6932;51.438;5.470;2024-03-02T09:36:57;99681.00;;;17.60
15079;BMP180;6932;51.438;5.470;2024-03-02T09:39:23;99669.00;;;17.60
15079;BMP180;6932;51.438;5.470;2024-03-02T09:41:51;99669.00;;;17.70
15079;BMP180;6932;51.438;5.470;2024-03-02T09:44:17;99667.00;;;17.70
15079;BMP180;6932;51.438;5.470;2024-03-02T09:46:43;99656.00;;;17.70
15079;BMP180;6932;51.438;5.470;2024-03-02T09:49:10;99674.00;;;17.70
15079;BMP180;6932;51.438;5.470;2024-03-02T09:51:37;99656.00;;;17.80
15079;BMP180;6932;51.438;5.470;2024-03-02T09:54:03;99675.00;;;17.80
15079;BMP180;6932;51.438;5.470;2024-03-02T09:56:30;99678.00;;;17.90
15079;BMP180;6932;51.438;5.470;2024-03-02T09:58:56;99661.00;;;17.90
15079;BMP180;6932;51.438;5.470;2024-03-02T10:01:21;99674.00;;;18.00
15079;BMP180;6932;51.438;5.470;2024-03-02T10:03:48;99664.00;;;18.00
15079;BMP180;6932;51.438;5.470;2024-03-02T10:06:24;99670.00;;;18.10
15079;BMP180;6932;51.438;5.470;2024-03-02T10:08:51;99664.00;;;18.20
15079;BMP180;6932;51.438;5.470;2024-03-02T10:11:34;99657.00;;;18.20
15079;BMP180;6932;51.438;5.470;2024-03-02T10:14:13;99661.00;;;18.30
15079;BMP180;6932;51.438;5.470;2024-03-02T10:16:41;99655.00;;;18.30
15079;BMP180;6932;51.438;5.470;2024-03-02T10:19:21;99653.00;;;18.30
15079;BMP180;6932;51.438;5.470;2024-03-02T10:21:51;99652.00;;;18.50
15079;BMP180;6932;51.438;5.470;2024-03-02T10:24:19;99641.00;;;18.50
15079;BMP180;6932;51.438;5.470;2024-03-02T10:26:45;99651.00;;;18.60
15079;BMP180;6932;51.438;5.470;2024-03-02T10:29:12;99647.00;;;18.60
15079;BMP180;6932;51.438;5.470;2024-03-02T10:31:43;99646.00;;;18.70
15079;BMP180;6932;51.438;5.470;2024-03-02T10:34:10;99646.00;;;18.70
15079;BMP180;6932;51.438;5.470;2024-03-02T10:36:40;99643.00;;;18.70
15079;BMP180;6932;51.438;5.470;2024-03-02T10:39:08;99644.00;;;18.70
15079;BMP180;6932;51.438;5.470;2024-03-02T10:41:36;99641.00;;;18.80
15079;BMP180;6932;51.438;5.470;2024-03-02T10:44:03;99637.00;;;18.80
15079;BMP180;6932;51.438;5.470;2024-03-02T10:46:35;99636.00;;;18.80
15079;BMP180;6932;51.438;5.470;2024-03-02T10:49:03;99630.00;;;18.90
15079;BMP180;6932;51.438;5.470;2024-03-02T10:51:33;99637.00;;;18.90
15079;BMP180;6932;51.438;5.470;2024-03-02T10:54:02;99632.00;;;19.00
15079;BMP180;6932;51.438;5.470;2024-03-02T10:56:34;99629.00;;;19.00
15079;BMP180;6932;51.438;5.470;2024-03-02T10:59:33;99637.00;;;18.80
15079;BMP180;6932;51.438;5.470;2024-03-02T11:02:01;99631.00;;;18.90
15079;BMP180;6932;51.438;5.470;2024-03-02T11:04:30;99622.00;;;18.90
15079;BMP180;6932;51.438;5.470;2024-03-02T11:07:09;99619.00;;;18.80
15079;BMP180;6932;51.438;5.470;2024-03-02T11:09:54;99621.00;;;18.80
15079;BMP180;6932;51.438;5.470;2024-03-02T11:12:59;99619.00;;;18.80
15079;BMP180;6932;51.438;5.470;2024-03-02T11:15:18;99631.00;;;18.80
15079;BMP180;6932;51.438;5.470;2024-03-02T11:17:47;99620.00;;;18.80
15079;BMP180;6932;51.438;5.470;2024-03-02T11:20:14;99614.00;;;18.80
15079;BMP180;6932;51.438;5.470;2024-03-02T11:22:40;99625.00;;;18.80
15079;BMP180;6932;51.438;5.470;2024-03-02T11:25:27;99615.00;;;18.60
15079;BMP180;6932;51.438;5.470;2024-03-02T11:33:04;99619.00;;;18.60
15079;BMP180;6932;51.438;5.470;2024-03-02T11:35:38;99625.00;;;18.60
15079;BMP180;6932;51.438;5.470;2024-03-02T11:38:07;99627.00;;;18.70
15079;BMP180;6932;51.438;5.470;2024-03-02T11:40:33;99622.00;;;18.70
15079;BMP180;6932;51.438;5.470;2024-03-02T11:43:02;99621.00;;;18.70
15079;BMP180;6932;51.438;5.470;2024-03-02T11:45:30;99621.00;;;18.70
15079;BMP180;6932;51.438;5.470;2024-03-02T11:48:00;99615.00;;;18.70
15079;BMP180;6932;51.438;5.470;2024-03-02T11:50:36;99619.00;;;18.70
15079;BMP180;6932;51.438;5.470;2024-03-02T11:53:10;99604.00;;;18.70
15079;BMP180;6932;51.438;5.470;2024-03-02T11:55:37;99607.00;;;18.70
15079;BMP180;6932;51.438;5.470;2024-03-02T11:58:07;99593.00;;;18.70
15079;BMP180;6932;51.438;5.470;2024-03-02T12:00:33;99597.00;;;18.80
15079;BMP180;6932;51.438;5.470;2024-03-02T12:03:12;99596.00;;;18.70
15079;BMP180;6932;51.438;5.470;2024-03-02T12:05:39;99591.00;;;18.80
15079;BMP180;6932;51.438;5.470;2024-03-02T12:08:07;99595.00;;;18.80
15079;BMP180;6932;51.438;5.470;2024-03-02T12:10:34;99584.00;;;18.80
15079;BMP180;6932;51.438;5.470;2024-03-02T12:13:03;99587.00;;;18.80
15079;BMP180;6932;51.438;5.470;2024-03-02T12:15:32;99573.00;;;18.80
15079;BMP180;6932;51.438;5.470;2024-03-02T12:18:00;99575.00;;;18.80
15079;BMP180;6932;51.438;5.470;2024-03-02T12:20:28;99569.00;;;18.80
15079;BMP180;6932;51.438;5.470;2024-03-02T12:22:57;99553.00;;;18.80
15079;BMP180;6932;51.438;5.470;2024-03-02T12:25:24;99553.00;;;18.80
15079;BMP180;6932;51.438;5.470;2024-03-02T12:27:54;99540.00;;;18.70
15079;BMP180;6932;51.438;5.470;2024-03-02T12:30:21;99543.00;;;18.70
15079;BMP180;6932;51.438;5.470;2024-03-02T12:32:47;99541.00;;;18.60
15079;BMP180;6932;51.438;5.470;2024-03-02T12:35:14;99544.00;;;18.60
15079;BMP180;6932;51.438;5.470;2024-03-02T12:37:47;99547.00;;;18.60
15079;BMP180;6932;51.438;5.470;2024-03-02T12:40:15;99534.00;;;18.60
15079;BMP180;6932;51.438;5.470;2024-03-02T12:42:41;99543.00;;;18.60
15079;BMP180;6932;51.438;5.470;2024-03-02T12:45:10;99543.00;;;18.60
15079;BMP180;6932;51.438;5.470;2024-03-02T12:47:37;99533.00;;;18.70
15079;BMP180;6932;51.438;5.470;2024-03-02T12:50:04;99550.00;;;18.70
15079;BMP180;6932;51.438;5.470;2024-03-02T12:52:30;99551.00;;;18.70
15079;BMP180;6932;51.438;5.470;2024-03-02T12:55:02;99532.00;;;18.60
15079;BMP180;6932;51.438;5.470;2024-03-02T12:57:30;99527.00;;;18.60
15079;BMP180;6932;51.438;5.470;2024-03-02T13:00:05;99529.00;;;18.60
15079;BMP180;6932;51.438;5.470;2024-03-02T13:02:36;99526.00;;;18.70
15079;BMP180;6932;51.438;5.470;2024-03-02T13:05:03;99517.00;;;18.70
15079;BMP180;6932;51.438;5.470;2024-03-02T13:07:29;99530.00;;;18.70
15079;BMP180;6932;51.438;5.470;2024-03-02T13:09:56;99518.00;;;18.70
15079;BMP180;6932;51.438;5.470;2024-03-02T13:12:24;99518.00;;;18.70
15079;BMP180;6932;51.438;5.470;2024-03-02T13:14:52;99508.00;;;18.70
15079;BMP180;6932;51.438;5.470;2024-03-02T13:17:21;99501.00;;;18.70
15079;BMP180;6932;51.438;5.470;2024-03-02T13:19:58;99505.00;;;18.70
15079;BMP180;6932;51.438;5.470;2024-03-02T13:22:27;99502.00;;;18.80
15079;BMP180;6932;51.438;5.470;2024-03-02T13:24:53;99501.00;;;18.80
15079;BMP180;6932;51.438;5.470;2024-03-02T13:27:23;99493.00;;;18.80
15079;BMP180;6932;51.438;5.470;2024-03-02T13:29:49;99491.00;;;18.80
15079;BMP180;6932;51.438;5.470;2024-03-02T13:32:16;99488.00;;;18.80
15079;BMP180;6932;51.438;5.470;2024-03-02T13:34:43;99493.00;;;18.80
15079;BMP180;6932;51.438;5.470;2024-03-02T13:37:09;99489.00;;;18.90
15079;BMP180;6932;51.438;5.470;2024-03-02T13:39:35;99490.00;;;18.90
15079;BMP180;6932;51.438;5.470;2024-03-02T13:42:10;99463.00;;;18.80
15079;BMP180;6932;51.438;5.470;2024-03-02T13:44:37;99491.00;;;18.90
15079;BMP180;6932;51.438;5.470;2024-03-02T13:47:04;99479.00;;;18.80
15079;BMP180;6932;51.438;5.470;2024-03-02T13:49:31;99476.00;;;18.80
15079;BMP180;6932;51.438;5.470;2024-03-02T13:52:05;99465.00;;;18.80
15079;BMP180;6932;51.438;5.470;2024-03-02T13:54:44;99458.00;;;18.80
15079;BMP180;6932;51.438;5.470;2024-03-02T13:57:11;99458.00;;;18.80
15079;BMP180;6932;51.438;5.470;2024-03-02T13:59:38;99457.00;;;18.80
15079;BMP180;6932;51.438;5.470;2024-03-02T14:02:05;99471.00;;;18.80
15079;BMP180;6932;51.438;5.470;2024-03-02T14:04:33;99463.00;;;18.80
15079;BMP180;6932;51.438;5.470;2024-03-02T14:07:00;99461.00;;;18.80
15079;BMP180;6932;51.438;5.470;2024-03-02T14:09:26;99440.00;;;18.80
15079;BMP180;6932;51.438;5.470;2024-03-02T14:11:53;99444.00;;;18.80
15079;BMP180;6932;51.438;5.470;2024-03-02T14:14:19;99445.00;;;18.80
15079;BMP180;6932;51.438;5.470;2024-03-02T14:16:45;99437.00;;;18.90
15079;BMP180;6932;51.438;5.470;2024-03-02T14:19:12;99440.00;;;18.90
15079;BMP180;6932;51.438;5.470;2024-03-02T14:21:41;99442.00;;;18.90
15079;BMP180;6932;51.438;5.470;2024-03-02T14:24:07;99439.00;;;18.90
15079;BMP180;6932;51.438;5.470;2024-03-02T14:26:34;99445.00;;;18.90
15079;BMP180;6932;51.438;5.470;2024-03-02T14:29:00;99439.00;;;18.90